createdAt,value
2022-09-16T00:00:51.717Z,12.57
2022-09-16T00:03:18.822Z,17.30
2022-09-16T00:05:47.765Z,7.57
2022-09-16T00:08:15.585Z,4.47
2022-09-16T00:10:43.616Z,7.82
2022-09-16T00:13:11.431Z,7.30
2022-09-16T00:15:41.536Z,8.23
2022-09-16T00:18:07.896Z,7.75
2022-09-16T00:20:34.406Z,5.43
2022-09-16T00:23:00.857Z,9.70
2022-09-16T00:25:27.397Z,8.82
2022-09-16T00:27:53.890Z,7.90
2022-09-16T00:30:21.058Z,8.10
2022-09-16T00:32:47.424Z,10.52
2022-09-16T00:35:13.908Z,9.82
2022-09-16T00:37:40.335Z,6.03
2022-09-16T00:40:07.090Z,5.25
2022-09-16T00:42:38.939Z,5.60
2022-09-16T00:45:16.239Z,8.05
2022-09-16T00:47:54.004Z,7.72
2022-09-16T00:50:28.375Z,9.90
2022-09-16T00:52:56.550Z,11.25
2022-09-16T00:55:28.189Z,11.57
2022-09-16T00:57:59.604Z,9.30
2022-09-16T01:00:27.163Z,8.52
2022-09-16T01:02:53.664Z,7.63
2022-09-16T01:05:23.469Z,12.05
2022-09-16T01:07:51.919Z,9.27
2022-09-16T01:10:22.501Z,7.07
2022-09-16T01:12:54.921Z,6.65
2022-09-16T01:15:31.454Z,11.73
2022-09-16T01:18:13.214Z,10.65
2022-09-16T01:20:49.707Z,8.13
2022-09-16T01:23:51.557Z,7.03
2022-09-16T01:26:53.011Z,11.93
2022-09-16T01:29:56.841Z,5.43
2022-09-16T01:32:34.727Z,5.85
2022-09-16T01:35:10.274Z,5.60
2022-09-16T01:38:02.438Z,6.93
2022-09-16T01:40:41.529Z,8.23
2022-09-16T01:43:40.218Z,4.35
2022-09-16T01:46:16.707Z,8.43
2022-09-16T01:48:57.037Z,9.13
2022-09-16T01:51:32.038Z,6.78
2022-09-16T01:54:11.881Z,6.88
2022-09-16T01:56:53.967Z,12.32
2022-09-16T01:59:42.468Z,11.27
2022-09-16T02:02:19.655Z,6.30
2022-09-16T02:04:51.414Z,7.85
2022-09-16T02:07:21.600Z,10.80
2022-09-16T02:10:08.713Z,17.70
2022-09-16T02:12:39.277Z,6.88
2022-09-16T02:15:11.348Z,8.90
2022-09-16T02:17:47.555Z,6.07
2022-09-16T02:20:19.739Z,8.45
2022-09-16T02:22:54.817Z,13.25
2022-09-16T02:25:22.986Z,8.75
2022-09-16T02:27:52.093Z,9.02
2022-09-16T02:30:22.023Z,10.23
2022-09-16T02:32:58.585Z,7.63
2022-09-16T02:35:27.026Z,4.82
2022-09-16T02:37:59.770Z,9.98
2022-09-16T02:40:35.913Z,6.63
2022-09-16T02:43:03.068Z,7.53
2022-09-16T02:45:48.551Z,9.00
2022-09-16T02:48:31.657Z,7.95
2022-09-16T02:51:10.075Z,8.65
2022-09-16T02:53:58.333Z,7.57
2022-09-16T02:56:31.245Z,5.95
2022-09-16T02:58:58.151Z,7.38
2022-09-16T03:01:25.986Z,9.63
2022-09-16T03:03:55.851Z,5.72
2022-09-16T03:06:25.535Z,8.30
2022-09-16T03:08:56.196Z,6.25
2022-09-16T03:11:40.114Z,8.02
2022-09-16T03:14:18.741Z,6.97
2022-09-16T03:16:55.135Z,7.88
2022-09-16T03:19:32.973Z,6.15
2022-09-16T03:22:05.371Z,10.05
2022-09-16T03:24:54.570Z,6.68
2022-09-16T03:27:31.802Z,8.15
2022-09-16T03:30:08.829Z,6.90
2022-09-16T03:32:41.303Z,9.23
2022-09-16T03:35:25.767Z,8.65
2022-09-16T03:37:58.302Z,7.85
2022-09-16T03:40:26.743Z,8.05
2022-09-16T03:42:53.203Z,8.30
2022-09-16T03:45:22.705Z,5.78
2022-09-16T03:47:51.762Z,11.63
2022-09-16T03:50:20.088Z,7.45
2022-09-16T03:52:47.452Z,7.07
2022-09-16T03:55:13.923Z,10.70
2022-09-16T03:57:40.311Z,14.80
2022-09-16T04:00:08.467Z,10.73
2022-09-16T04:02:40.549Z,9.45
2022-09-16T04:05:08.811Z,7.88
2022-09-16T04:07:35.925Z,4.38
2022-09-16T04:10:03.154Z,10.43
2022-09-16T04:12:29.700Z,10.77
2022-09-16T04:14:56.251Z,10.85
2022-09-16T04:17:23.221Z,6.95
2022-09-16T04:19:51.147Z,10.98
2022-09-16T04:22:17.509Z,5.43
2022-09-16T04:24:43.927Z,9.05
2022-09-16T04:27:10.299Z,8.02
2022-09-16T04:29:36.892Z,7.93
2022-09-16T04:32:03.493Z,8.73
2022-09-16T04:34:30.137Z,5.25
2022-09-16T04:36:56.531Z,8.88
2022-09-16T04:39:23.045Z,8.60
2022-09-16T04:41:49.411Z,5.60
2022-09-16T04:44:16.022Z,9.88
2022-09-16T04:46:42.474Z,6.95
2022-09-16T04:49:09.072Z,6.28
2022-09-16T04:51:35.441Z,12.77
2022-09-16T04:54:01.924Z,8.30
2022-09-16T04:56:31.566Z,8.48
2022-09-16T04:59:03.532Z,5.75
2022-09-16T05:01:32.514Z,7.55
2022-09-16T05:04:02.371Z,6.45
2022-09-16T05:06:35.334Z,10.30
2022-09-16T05:09:02.756Z,9.18
2022-09-16T05:11:31.986Z,12.35
2022-09-16T05:13:59.524Z,5.28
2022-09-16T05:16:25.928Z,7.63
2022-09-16T05:18:55.585Z,7.13
2022-09-16T05:21:24.339Z,7.45
2022-09-16T05:23:52.513Z,8.25
2022-09-16T05:26:24.882Z,9.52
2022-09-16T05:28:52.472Z,7.78
2022-09-16T05:31:24.414Z,4.32
2022-09-16T05:34:02.143Z,7.78
2022-09-16T05:36:31.163Z,11.15
2022-09-16T05:39:22.265Z,12.23
2022-09-16T05:41:45.277Z,9.95
2022-09-16T05:44:12.149Z,13.00
2022-09-16T05:46:40.633Z,9.80
2022-09-16T05:49:07.969Z,8.90
2022-09-16T05:51:34.512Z,7.05
2022-09-16T05:54:00.908Z,11.23
2022-09-16T05:56:30.033Z,10.43
2022-09-16T05:58:59.535Z,10.52
2022-09-16T06:01:34.636Z,5.22
2022-09-16T06:04:03.172Z,12.55
2022-09-16T06:06:34.028Z,9.65
2022-09-16T06:09:08.036Z,6.18
2022-09-16T06:11:38.334Z,8.48
2022-09-16T06:14:06.021Z,6.72
2022-09-16T06:16:33.067Z,9.40
2022-09-16T06:19:01.705Z,9.70
2022-09-16T06:21:29.106Z,8.30
2022-09-16T06:23:56.671Z,11.27
2022-09-16T06:26:26.074Z,12.10
2022-09-16T06:28:53.548Z,8.60
2022-09-16T06:31:23.435Z,10.35
2022-09-16T06:33:50.880Z,11.48
2022-09-16T06:36:23.590Z,8.25
2022-09-16T06:38:51.229Z,7.45
2022-09-16T06:41:19.740Z,11.48
2022-09-16T06:43:47.059Z,12.70
2022-09-16T06:46:19.866Z,13.18
2022-09-16T06:48:50.111Z,11.25
2022-09-16T06:51:22.832Z,9.73
2022-09-16T06:53:50.206Z,16.85
2022-09-16T06:56:20.498Z,9.10
2022-09-16T06:58:49.207Z,6.43
2022-09-16T07:01:28.086Z,6.75
2022-09-16T07:03:56.638Z,10.77
2022-09-16T07:06:38.149Z,8.60
2022-09-16T07:09:11.279Z,12.88
2022-09-16T07:11:37.758Z,8.88
2022-09-16T07:14:04.939Z,8.32
2022-09-16T07:16:31.460Z,11.55
2022-09-16T07:19:01.167Z,16.38
2022-09-16T07:21:30.102Z,15.65
2022-09-16T07:24:02.509Z,9.00
2022-09-16T07:26:31.197Z,11.40
2022-09-16T07:29:00.706Z,11.45
2022-09-16T07:31:29.428Z,8.27
2022-09-16T07:34:02.847Z,8.85
2022-09-16T07:36:33.653Z,6.90
2022-09-16T07:39:00.572Z,11.35
2022-09-16T07:41:29.797Z,7.72
2022-09-16T07:43:59.061Z,8.82
2022-09-16T07:46:27.761Z,13.77
2022-09-16T07:48:55.145Z,6.13
2022-09-16T07:51:24.066Z,14.68
2022-09-16T07:53:59.458Z,8.15
2022-09-16T07:56:28.954Z,7.65
2022-09-16T07:58:56.751Z,8.73
2022-09-16T08:01:24.060Z,11.15
2022-09-16T08:03:51.140Z,15.07
2022-09-16T08:06:20.755Z,9.77
2022-09-16T08:08:48.192Z,7.97
2022-09-16T08:11:15.297Z,13.02
2022-09-16T08:13:43.112Z,7.53
2022-09-16T08:16:15.057Z,8.35
2022-09-16T08:18:42.604Z,9.75
2022-09-16T08:21:23.538Z,11.20
2022-09-16T08:23:50.552Z,14.50
2022-09-16T08:26:18.119Z,8.32
2022-09-16T08:29:07.352Z,10.88
2022-09-16T08:31:33.249Z,7.43
2022-09-16T08:33:59.894Z,8.63
2022-09-16T08:36:26.412Z,9.20
2022-09-16T08:38:56.133Z,15.02
2022-09-16T08:41:44.216Z,9.32
2022-09-16T08:44:35.347Z,13.52
2022-09-16T08:47:06.320Z,9.65
2022-09-16T08:49:35.545Z,7.47
2022-09-16T08:52:10.639Z,8.07
2022-09-16T08:54:47.866Z,6.55
2022-09-16T08:57:21.409Z,11.00
2022-09-16T08:59:59.513Z,7.78
2022-09-16T09:05:43.390Z,8.55
2022-09-16T09:08:19.326Z,14.48
2022-09-16T09:10:52.158Z,9.10
2022-09-16T09:13:22.198Z,7.78
2022-09-16T09:16:00.010Z,11.52
2022-09-16T09:19:03.120Z,9.00
2022-09-16T09:21:55.499Z,9.90
2022-09-16T09:24:28.081Z,14.05
2022-09-16T09:27:01.250Z,12.73
2022-09-16T09:30:00.872Z,12.82
2022-09-16T09:32:38.237Z,8.70
2022-09-16T09:35:49.723Z,10.43
2022-09-16T09:38:37.539Z,6.43
2022-09-16T09:41:32.684Z,10.32
2022-09-16T09:44:26.145Z,10.32
2022-09-16T09:46:58.004Z,10.80
2022-09-16T09:49:51.173Z,11.10
2022-09-16T09:52:23.289Z,10.27
2022-09-16T09:54:51.533Z,14.77
2022-09-16T09:57:31.612Z,10.07
2022-09-16T10:00:11.626Z,11.52
2022-09-16T10:02:46.238Z,9.50
2022-09-16T10:05:23.715Z,12.63
2022-09-16T10:07:57.329Z,10.00
2022-09-16T10:10:26.672Z,12.30
2022-09-16T10:12:54.305Z,11.55
2022-09-16T10:15:38.531Z,12.25
2022-09-16T10:18:25.105Z,13.25
2022-09-16T10:21:11.465Z,9.52
2022-09-16T10:23:39.158Z,8.07
2022-09-16T10:26:27.577Z,10.40
2022-09-16T10:29:03.442Z,8.38
2022-09-16T10:31:35.636Z,7.93
2022-09-16T10:34:04.515Z,9.40
2022-09-16T10:36:34.609Z,10.38
2022-09-16T10:39:05.263Z,7.63
2022-09-16T10:41:42.326Z,7.78
2022-09-16T10:44:28.285Z,6.00
2022-09-16T10:47:01.409Z,8.35
2022-09-16T10:49:38.760Z,7.35
2022-09-16T10:52:17.516Z,7.45
2022-09-16T10:54:44.891Z,6.68
2022-09-16T10:57:31.177Z,7.60
2022-09-16T11:00:14.536Z,5.85
2022-09-16T11:03:28.269Z,8.35
2022-09-16T11:06:06.933Z,9.43
2022-09-16T11:08:51.668Z,9.43
2022-09-16T11:11:37.641Z,5.75
2022-09-16T11:14:25.665Z,7.28
2022-09-16T11:17:15.288Z,5.40
2022-09-16T11:20:04.769Z,7.30
2022-09-16T11:22:54.096Z,8.32
2022-09-16T11:25:41.509Z,6.60
2022-09-16T11:28:32.887Z,6.15
2022-09-16T11:31:34.938Z,4.45
2022-09-16T11:34:16.592Z,8.13
2022-09-16T11:36:49.085Z,7.20
2022-09-16T11:39:49.529Z,8.52
2022-09-16T11:42:34.369Z,8.70
2022-09-16T11:45:19.137Z,10.32
2022-09-16T11:47:56.874Z,11.90
2022-09-16T11:50:49.421Z,7.05
2022-09-16T11:53:35.006Z,10.60
2022-09-16T11:56:10.821Z,11.13
2022-09-16T11:58:49.018Z,8.18
2022-09-16T12:01:46.710Z,7.38
2022-09-16T12:04:38.399Z,7.13
2022-09-16T12:07:17.963Z,6.53
2022-09-16T12:09:57.583Z,4.65
2022-09-16T12:12:29.540Z,8.95
2022-09-16T12:15:05.967Z,8.02
2022-09-16T12:17:37.078Z,7.05
2022-09-16T12:20:14.465Z,9.00
2022-09-16T12:23:30.219Z,8.32
2022-09-16T12:26:07.032Z,8.75
2022-09-16T12:28:55.354Z,7.78
2022-09-16T12:31:36.491Z,12.43
2022-09-16T12:34:27.670Z,16.45
2022-09-16T12:37:22.640Z,6.43
2022-09-16T12:39:50.308Z,11.73
2022-09-16T12:42:47.569Z,5.00
2022-09-16T12:45:51.095Z,10.07
2022-09-16T12:48:38.900Z,14.07
2022-09-16T12:51:30.354Z,6.25
2022-09-16T12:54:20.441Z,6.10
2022-09-16T12:57:15.852Z,7.13
2022-09-16T12:59:52.403Z,7.70
2022-09-16T13:02:22.660Z,7.07
2022-09-16T13:04:53.173Z,5.63
2022-09-16T13:07:27.364Z,5.18
2022-09-16T13:10:01.670Z,6.75
2022-09-16T13:12:40.977Z,5.13
2022-09-16T13:15:27.162Z,6.72
2022-09-16T13:17:54.295Z,6.53
2022-09-16T13:20:33.499Z,7.50
2022-09-16T13:23:07.343Z,5.70
2022-09-16T13:25:44.799Z,6.80
2022-09-16T13:28:39.123Z,5.90
2022-09-16T13:31:11.679Z,6.03
2022-09-16T13:33:45.278Z,7.47
2022-09-16T13:36:31.876Z,12.70
2022-09-16T13:39:01.886Z,5.03
2022-09-16T13:41:48.702Z,5.80
2022-09-16T13:44:33.509Z,8.43
2022-09-16T13:47:09.222Z,7.95
2022-09-16T13:49:47.568Z,8.55
2022-09-16T13:52:21.131Z,12.52
2022-09-16T13:55:10.101Z,6.20
2022-09-16T13:58:10.831Z,8.35
2022-09-16T14:00:49.671Z,6.07
2022-09-16T14:03:29.218Z,9.10
2022-09-16T14:05:58.635Z,10.35
2022-09-16T14:08:53.207Z,7.55
2022-09-16T14:11:31.670Z,9.38
2022-09-16T14:14:06.239Z,12.45
2022-09-16T14:16:34.794Z,8.30
2022-09-16T14:19:19.942Z,12.10
2022-09-16T14:21:46.797Z,11.60
2022-09-16T14:24:19.452Z,12.32
2022-09-16T14:26:53.463Z,4.85
2022-09-16T14:29:20.775Z,12.10
2022-09-16T14:31:48.240Z,8.05
2022-09-16T14:34:36.266Z,11.02
2022-09-16T14:37:05.410Z,6.72
2022-09-16T14:39:32.720Z,14.95
2022-09-16T14:42:07.283Z,11.27
2022-09-16T14:44:45.463Z,14.73
2022-09-16T14:47:29.458Z,7.90
2022-09-16T14:50:07.701Z,13.23
2022-09-16T14:52:35.797Z,11.10
2022-09-16T14:55:02.235Z,14.00
2022-09-16T14:57:30.716Z,14.52
2022-09-16T14:59:59.238Z,15.25
2022-09-16T15:02:34.248Z,9.70
2022-09-16T15:05:33.168Z,19.02
2022-09-16T15:08:14.208Z,20.52
2022-09-16T15:12:46.584Z,13.90
2022-09-16T15:13:36.511Z,16.95
2022-09-16T15:16:16.110Z,18.27
2022-09-16T15:18:52.485Z,13.07
2022-09-16T15:21:26.476Z,10.20
2022-09-16T15:23:56.589Z,12.75
2022-09-16T15:26:26.413Z,15.82
2022-09-16T15:31:46.600Z,9.32
2022-09-16T15:34:19.125Z,8.63
2022-09-16T15:36:47.522Z,10.10
2022-09-16T15:39:31.835Z,14.38
2022-09-16T15:42:18.077Z,17.80
2022-09-16T15:44:48.971Z,16.42
2022-09-16T15:47:33.991Z,17.42
2022-09-16T15:50:05.305Z,7.85
2022-09-16T15:52:34.899Z,20.00
2022-09-16T15:55:06.027Z,13.32
2022-09-16T15:57:38.148Z,13.75
2022-09-16T16:00:15.811Z,13.25
2022-09-16T16:02:50.489Z,17.35
2022-09-16T16:05:21.339Z,13.07
2022-09-16T16:07:51.605Z,11.70
2022-09-16T16:10:32.907Z,13.90
2022-09-16T16:13:01.187Z,8.48
2022-09-16T16:15:36.451Z,15.07
2022-09-16T16:18:05.670Z,15.27
2022-09-16T16:20:34.108Z,18.95
2022-09-16T16:23:01.629Z,12.98
2022-09-16T16:25:28.885Z,14.80
2022-09-16T16:27:55.517Z,13.25
2022-09-16T16:30:22.011Z,15.45
2022-09-16T16:32:48.810Z,19.15
2022-09-16T16:35:15.328Z,16.90
2022-09-16T16:37:46.457Z,11.27
2022-09-16T16:40:15.026Z,17.25
2022-09-16T16:42:43.301Z,17.58
2022-09-16T16:45:12.072Z,27.95
2022-09-16T16:47:38.395Z,24.70
2022-09-16T16:50:05.128Z,22.40
2022-09-16T16:52:31.476Z,21.20
2022-09-16T16:54:57.958Z,30.48
2022-09-16T16:57:24.390Z,34.90
2022-09-16T16:59:51.866Z,27.52
2022-09-16T17:02:18.295Z,27.92
2022-09-16T17:04:44.644Z,36.45
2022-09-16T17:07:27.901Z,30.25
2022-09-16T17:09:55.788Z,23.25
2022-09-16T17:12:22.260Z,30.70
2022-09-16T17:14:48.658Z,39.10
2022-09-16T17:17:15.293Z,27.10
2022-09-16T17:19:41.651Z,33.88
2022-09-16T17:22:08.095Z,29.02
2022-09-16T17:24:34.814Z,30.38
2022-09-16T17:27:01.920Z,37.47
2022-09-16T17:29:28.348Z,32.90
2022-09-16T17:31:57.017Z,30.38
2022-09-16T17:34:23.717Z,34.30
2022-09-16T17:36:50.192Z,35.17
2022-09-16T17:39:18.813Z,32.65
2022-09-16T17:41:47.442Z,30.23
2022-09-16T17:44:14.486Z,32.90
2022-09-16T17:46:42.662Z,46.25
2022-09-16T17:49:23.766Z,46.67
2022-09-16T17:51:51.824Z,38.95
2022-09-16T17:54:18.545Z,39.97
2022-09-16T17:56:45.228Z,41.08
2022-09-16T17:59:13.168Z,29.90
2022-09-16T18:01:39.913Z,31.05
2022-09-16T18:04:07.019Z,29.73
2022-09-16T18:06:39.910Z,20.15
2022-09-16T18:09:09.453Z,43.33
2022-09-16T18:11:36.986Z,23.80
2022-09-16T18:14:06.308Z,35.72
2022-09-16T18:16:32.895Z,32.13
2022-09-16T18:19:01.439Z,31.33
2022-09-16T18:21:30.121Z,24.73
2022-09-16T18:24:02.325Z,31.05
2022-09-16T18:26:29.651Z,33.58
2022-09-16T18:29:16.170Z,32.75
2022-09-16T18:31:45.257Z,24.67
2022-09-16T18:34:12.714Z,33.50
2022-09-16T18:36:39.736Z,31.75
2022-09-16T18:39:10.028Z,29.92
2022-09-16T18:41:38.564Z,24.13
2022-09-16T18:44:10.351Z,26.33
2022-09-16T18:46:37.802Z,27.05
2022-09-16T18:49:05.838Z,27.55
2022-09-16T18:51:36.894Z,28.48
2022-09-16T18:54:10.576Z,26.27
2022-09-16T18:56:38.816Z,31.25
2022-09-16T18:59:26.139Z,27.23
2022-09-16T19:01:54.699Z,32.08
2022-09-16T19:04:23.598Z,26.02
2022-09-16T19:06:53.143Z,18.17
2022-09-16T19:09:21.983Z,30.75
2022-09-16T19:11:49.458Z,31.30
2022-09-16T19:14:16.306Z,26.67
2022-09-16T19:16:44.580Z,30.42
2022-09-16T19:19:13.848Z,24.08
2022-09-16T19:21:41.972Z,32.83
2022-09-16T19:24:13.921Z,30.52
2022-09-16T19:26:42.171Z,29.85
2022-09-16T19:29:09.763Z,19.92
2022-09-16T19:31:39.214Z,17.40
2022-09-16T19:34:06.700Z,31.42
2022-09-16T19:36:34.612Z,27.85
2022-09-16T19:39:01.702Z,25.95
2022-09-16T19:41:34.755Z,16.95
2022-09-16T19:44:04.392Z,23.45
2022-09-16T19:46:34.649Z,26.88
2022-09-16T19:49:01.389Z,23.48
2022-09-16T19:51:28.312Z,25.65
2022-09-16T19:53:55.062Z,22.73
2022-09-16T19:56:27.009Z,21.58
2022-09-16T19:58:54.525Z,24.25
2022-09-16T20:01:27.107Z,26.42
2022-09-16T20:03:54.466Z,20.88
2022-09-16T20:06:41.247Z,21.83
2022-09-16T20:09:12.692Z,22.08
2022-09-16T20:11:41.965Z,17.77
2022-09-16T20:14:14.346Z,27.88
2022-09-16T20:16:40.958Z,15.60
2022-09-16T20:19:12.533Z,16.55
2022-09-16T20:21:39.299Z,15.90
2022-09-16T20:24:07.846Z,23.27
2022-09-16T20:26:35.523Z,15.95
2022-09-16T20:29:02.662Z,21.48
2022-09-16T20:31:32.499Z,18.48
2022-09-16T20:33:59.730Z,18.27
2022-09-16T20:36:29.752Z,19.17
2022-09-16T20:38:56.851Z,18.65
2022-09-16T20:41:24.979Z,17.13
2022-09-16T20:43:52.749Z,21.65
2022-09-16T20:46:22.147Z,19.10
2022-09-16T20:48:49.106Z,13.98
2022-09-16T20:51:18.272Z,17.88
2022-09-16T20:53:53.943Z,12.15
2022-09-16T20:56:21.165Z,19.55
2022-09-16T20:58:48.148Z,15.02
2022-09-16T21:01:19.137Z,20.02
2022-09-16T21:03:49.886Z,22.20
2022-09-16T21:06:16.248Z,19.65
2022-09-16T21:08:43.720Z,23.20
2022-09-16T21:11:13.177Z,22.60
2022-09-16T21:13:41.316Z,13.38
2022-09-16T21:16:09.529Z,16.98
2022-09-16T21:18:36.002Z,17.55
2022-09-16T21:21:07.939Z,15.38
2022-09-16T21:23:35.110Z,23.65
2022-09-16T21:26:04.154Z,18.45
2022-09-16T21:28:31.689Z,19.60
2022-09-16T21:31:02.329Z,21.63
2022-09-16T21:33:30.739Z,20.27
2022-09-16T21:35:57.092Z,24.75
2022-09-16T21:38:24.562Z,24.63
2022-09-16T21:40:55.974Z,20.35
2022-09-16T21:43:26.404Z,16.35
2022-09-16T21:45:53.801Z,18.73
2022-09-16T21:48:20.898Z,23.85
2022-09-16T21:50:48.388Z,18.02
2022-09-16T21:53:15.285Z,21.92
2022-09-16T21:55:41.963Z,17.33
2022-09-16T21:58:08.869Z,33.22
2022-09-16T22:00:36.506Z,18.10
2022-09-16T22:03:02.938Z,27.27
2022-09-16T22:05:30.373Z,17.10
2022-09-16T22:07:57.048Z,20.73
2022-09-16T22:10:23.460Z,23.77
2022-09-16T22:12:49.898Z,21.65
2022-09-16T22:15:16.746Z,19.90
2022-09-16T22:17:43.442Z,24.55
2022-09-16T22:20:11.620Z,17.55
2022-09-16T22:22:39.117Z,32.47
2022-09-16T22:25:05.639Z,18.35
2022-09-16T22:27:33.008Z,17.83
2022-09-16T22:29:59.542Z,17.45
2022-09-16T22:32:27.009Z,25.13
2022-09-16T22:34:53.527Z,19.85
2022-09-16T22:37:19.959Z,17.38
2022-09-16T22:39:46.332Z,22.27
2022-09-16T22:42:12.836Z,24.67
2022-09-16T22:44:39.179Z,20.25
2022-09-16T22:47:05.808Z,27.75
2022-09-16T22:49:32.137Z,16.63
2022-09-16T22:51:58.586Z,23.17
2022-09-16T22:54:24.971Z,17.48
2022-09-16T22:56:51.470Z,26.05
2022-09-16T22:59:20.081Z,28.95
2022-09-16T23:01:47.248Z,21.90
2022-09-16T23:04:13.715Z,24.70
2022-09-16T23:06:41.170Z,17.17
2022-09-16T23:09:08.784Z,28.00
2022-09-16T23:11:36.033Z,19.92
2022-09-16T23:14:04.034Z,34.25
2022-09-16T23:16:35.784Z,36.38
2022-09-16T23:19:05.332Z,28.85
2022-09-16T23:21:32.417Z,31.20
2022-09-16T23:24:01.259Z,27.15
2022-09-16T23:26:33.457Z,26.58
2022-09-16T23:29:01.904Z,23.00
2022-09-16T23:31:31.077Z,36.28
2022-09-16T23:33:58.144Z,37.38
2022-09-16T23:36:26.029Z,27.40
2022-09-16T23:38:53.820Z,28.92
2022-09-16T23:41:22.992Z,25.40
2022-09-16T23:43:50.169Z,30.83
2022-09-16T23:46:19.845Z,32.20
2022-09-16T23:48:47.225Z,23.10
2022-09-16T23:51:13.971Z,28.25
2022-09-16T23:53:42.208Z,26.67
2022-09-16T23:56:11.515Z,30.23
2022-09-16T23:58:38.464Z,36.38
